createdAt,value
2023-05-22T08:02:02.301Z,102625.44
2023-05-22T08:04:30.209Z,102623.16
2023-05-22T08:06:57.328Z,102618.84
2023-05-22T08:09:24.490Z,102647.00
2023-05-22T08:11:51.555Z,102624.22
2023-05-22T08:14:18.678Z,102640.28
2023-05-22T08:16:46.092Z,102645.41
2023-05-22T08:19:14.085Z,102643.16
2023-05-22T08:21:41.142Z,102632.25
2023-05-22T08:24:08.512Z,102644.56
2023-05-22T08:26:36.449Z,102639.16
2023-05-22T08:29:03.469Z,102644.09
2023-05-22T08:31:31.100Z,102645.75
2023-05-22T08:34:02.783Z,102635.63
2023-05-22T08:36:34.389Z,102625.03
2023-05-22T08:39:02.110Z,102636.91
2023-05-22T08:41:30.287Z,102634.91
2023-05-22T08:43:58.013Z,102620.09
2023-05-22T08:46:26.689Z,102630.84
2023-05-22T08:48:56.823Z,102625.41
2023-05-22T08:51:32.909Z,102626.00
2023-05-22T08:54:01.310Z,102625.72
2023-05-22T08:56:30.225Z,102612.03
2023-05-22T08:58:58.429Z,102620.81
2023-05-22T09:01:26.122Z,102594.47
2023-05-22T09:03:54.101Z,102608.66
2023-05-22T09:06:21.334Z,102618.34
2023-05-22T09:08:50.073Z,102611.78
2023-05-22T09:11:18.480Z,102611.38
2023-05-22T09:13:45.909Z,102608.31
2023-05-22T09:16:13.423Z,102599.13
2023-05-22T09:18:42.321Z,102606.94
2023-05-22T09:21:28.982Z,102601.25
2023-05-22T09:24:01.463Z,102600.88
2023-05-22T09:26:33.045Z,102592.59
2023-05-22T09:29:01.179Z,102597.50
2023-05-22T09:31:31.903Z,102591.78
2023-05-22T09:33:59.936Z,102595.03
2023-05-22T09:36:33.872Z,102593.81
2023-05-22T09:39:04.066Z,102579.91
2023-05-22T09:41:35.360Z,102586.56
2023-05-22T09:44:06.937Z,102577.72
2023-05-22T09:46:40.343Z,102567.38
2023-05-22T09:49:07.804Z,102573.97
2023-05-22T09:51:36.402Z,102562.88
2023-05-22T09:54:06.884Z,102558.34
2023-05-22T09:56:40.424Z,102565.47
2023-05-22T09:59:09.978Z,102558.88
2023-05-22T10:01:59.000Z,102563.97
2023-05-22T10:04:49.823Z,102559.84
2023-05-22T10:07:43.023Z,102520.03
2023-05-22T10:10:32.646Z,102550.91
2023-05-22T10:13:26.265Z,102550.59
2023-05-22T10:16:14.276Z,102533.84
2023-05-22T10:19:02.905Z,102545.50
2023-05-22T10:21:50.599Z,102522.88
2023-05-22T10:24:37.815Z,102526.34
2023-05-22T10:27:24.986Z,102523.56
2023-05-22T10:30:18.493Z,102515.69
2023-05-22T10:33:42.706Z,102508.03
2023-05-22T10:36:54.454Z,102493.00
2023-05-22T10:40:00.955Z,102479.66
2023-05-22T10:42:52.359Z,102502.06
2023-05-22T10:45:39.525Z,102496.50
2023-05-22T10:48:27.638Z,102496.97
2023-05-22T10:51:14.684Z,102489.69
2023-05-22T10:54:04.446Z,102489.66
2023-05-22T10:56:55.600Z,102478.63
2023-05-22T10:59:54.701Z,102479.97
2023-05-22T11:02:45.694Z,102473.47
2023-05-22T11:05:38.649Z,102477.63
2023-05-22T11:08:53.800Z,102460.56
2023-05-22T11:11:45.512Z,102464.31
2023-05-22T11:14:33.476Z,102461.81
2023-05-22T11:17:21.757Z,102449.13
2023-05-22T11:20:25.241Z,102458.38
2023-05-22T11:23:20.879Z,102456.81
2023-05-22T11:26:07.844Z,102454.44
2023-05-22T11:28:54.870Z,102458.66
2023-05-22T11:31:41.935Z,102455.38
2023-05-22T11:34:29.164Z,102451.53
2023-05-22T11:37:19.935Z,102445.78
2023-05-22T11:40:17.848Z,102430.97
2023-05-22T11:43:05.219Z,102443.94
2023-05-22T11:45:56.888Z,102419.34
2023-05-22T11:48:44.104Z,102439.66
2023-05-22T11:51:31.360Z,102421.13
2023-05-22T11:54:18.463Z,102424.03
2023-05-22T11:57:05.926Z,102436.69
2023-05-22T11:59:53.135Z,102422.00
2023-05-22T12:02:40.659Z,102426.06
2023-05-22T12:05:28.010Z,102423.59
2023-05-22T12:08:15.375Z,102411.22
2023-05-22T12:11:11.704Z,102404.75
2023-05-22T12:13:59.364Z,102411.06
2023-05-22T12:16:46.498Z,102405.44
2023-05-22T12:19:34.107Z,102395.38
2023-05-22T12:22:22.556Z,102401.88
2023-05-22T12:25:12.508Z,102390.22
2023-05-22T12:27:59.519Z,102387.63
2023-05-22T12:30:46.806Z,102376.53
2023-05-22T12:33:37.462Z,102374.38
2023-05-22T12:36:28.566Z,102380.53
2023-05-22T12:39:17.530Z,102378.09
2023-05-22T12:42:05.919Z,102374.69
2023-05-22T12:44:52.848Z,102362.88
2023-05-22T12:47:40.208Z,102361.41
2023-05-22T12:50:28.116Z,102352.47
2023-05-22T12:53:15.343Z,102354.91
2023-05-22T12:56:03.384Z,102350.16
2023-05-22T12:58:50.498Z,102345.56
2023-05-22T13:01:37.737Z,102339.81
2023-05-22T13:04:24.864Z,102343.59
2023-05-22T13:07:12.040Z,102313.47
2023-05-22T13:09:59.249Z,102333.00
2023-05-22T13:12:46.295Z,102334.75
2023-05-22T13:15:36.392Z,102313.16
2023-05-22T13:18:24.192Z,102302.13
2023-05-22T13:21:11.358Z,102326.84
2023-05-22T13:23:58.609Z,102334.59
2023-05-22T13:26:45.693Z,102323.94
2023-05-22T13:29:32.710Z,102320.38
2023-05-22T13:32:20.289Z,102326.69
2023-05-22T13:35:07.338Z,102304.22
2023-05-22T13:37:54.516Z,102323.72
2023-05-22T13:40:41.683Z,102325.88
2023-05-22T13:43:28.795Z,102313.38
2023-05-22T13:46:15.810Z,102318.28
2023-05-22T13:49:03.078Z,102321.41
2023-05-22T13:51:50.042Z,102315.78
2023-05-22T13:54:37.289Z,102307.25
2023-05-22T13:57:24.339Z,102307.50
2023-05-22T14:00:11.624Z,102312.44
2023-05-22T14:02:58.627Z,102291.66
2023-05-22T14:05:46.138Z,102308.53
2023-05-22T14:08:33.213Z,102308.63
2023-05-22T14:11:20.624Z,102294.38
2023-05-22T14:14:07.721Z,102289.59
2023-05-22T14:16:54.775Z,102294.56
2023-05-22T14:19:41.865Z,102295.31
2023-05-22T14:22:29.084Z,102288.66
2023-05-22T14:25:16.321Z,102282.03
2023-05-22T14:28:03.374Z,102289.84
2023-05-22T14:30:50.655Z,102281.34
2023-05-22T14:33:37.579Z,102274.69
2023-05-22T14:36:25.100Z,102270.16
2023-05-22T14:39:15.517Z,102254.16
2023-05-22T14:42:02.884Z,102263.56
2023-05-22T14:44:50.003Z,102255.28
2023-05-22T14:47:37.098Z,102263.69
2023-05-22T14:50:24.483Z,102259.25
2023-05-22T14:53:11.547Z,102264.81
2023-05-22T14:55:58.706Z,102253.44
2023-05-22T14:58:45.819Z,102248.53
2023-05-22T15:01:32.984Z,102243.59
2023-05-22T15:04:20.056Z,102243.72
2023-05-22T15:07:07.186Z,102209.69
2023-05-22T15:09:54.366Z,102223.91
2023-05-22T15:12:41.796Z,102234.38
2023-05-22T15:15:29.380Z,102219.69
2023-05-22T15:18:16.601Z,102220.19
2023-05-22T15:21:03.808Z,102212.41
2023-05-22T15:23:51.032Z,102207.06
2023-05-22T15:26:38.186Z,102196.91
2023-05-22T15:29:25.185Z,102200.09
2023-05-22T15:32:12.300Z,102196.72
2023-05-22T15:34:59.526Z,102186.88
2023-05-22T15:37:27.660Z,102188.34
2023-05-22T15:39:55.889Z,102188.78
2023-05-22T15:42:22.875Z,102179.75
2023-05-22T15:44:50.031Z,102149.63
2023-05-22T15:47:17.046Z,102178.09
2023-05-22T15:49:44.090Z,102164.22
2023-05-22T15:52:31.218Z,102177.41
2023-05-22T15:55:18.441Z,102161.81
2023-05-22T15:58:05.519Z,102168.69
2023-05-22T16:00:52.602Z,102167.16
2023-05-22T16:03:39.906Z,102156.97
2023-05-22T16:06:27.180Z,102141.19
2023-05-22T16:09:14.696Z,102123.84
2023-05-22T16:12:01.918Z,102142.41
2023-05-22T16:14:49.618Z,102134.97
2023-05-22T16:17:36.827Z,102143.00
2023-05-22T16:20:24.456Z,102126.19
2023-05-22T16:23:11.818Z,102116.03
2023-05-22T16:25:58.849Z,102131.97
2023-05-22T16:28:45.816Z,102129.81
2023-05-22T16:31:32.907Z,102132.94
2023-05-22T16:34:20.762Z,102116.25
2023-05-22T16:37:07.852Z,102128.19
2023-05-22T16:39:54.873Z,102114.44
2023-05-22T16:42:41.928Z,102108.69
2023-05-22T16:45:29.134Z,102095.34
2023-05-22T16:48:16.274Z,102101.09
2023-05-22T16:51:03.681Z,102096.03
2023-05-22T16:53:50.868Z,102093.59
2023-05-22T16:56:37.863Z,102095.03
2023-05-22T16:59:25.139Z,102092.56
2023-05-22T17:02:12.413Z,102090.41
2023-05-22T17:04:59.517Z,102098.84
2023-05-22T17:07:46.739Z,102098.25
2023-05-22T17:10:34.198Z,102099.69
2023-05-22T17:13:21.260Z,102097.06
2023-05-22T17:16:12.009Z,102094.31
2023-05-22T17:18:59.126Z,102075.16
2023-05-22T17:21:46.302Z,102089.91
2023-05-22T17:24:33.394Z,102083.69
2023-05-22T17:27:31.680Z,102077.66
2023-05-22T17:30:22.590Z,102074.38
2023-05-22T17:33:10.098Z,102075.34
2023-05-22T17:35:57.226Z,102056.69
2023-05-22T17:38:44.356Z,102065.25
2023-05-22T17:41:31.354Z,102055.25
2023-05-22T17:44:18.648Z,102041.22
2023-05-22T17:47:05.759Z,102055.16
2023-05-22T17:49:52.893Z,102045.22
2023-05-22T17:52:39.973Z,102049.75
2023-05-22T17:55:27.461Z,102051.47
2023-05-22T17:58:14.942Z,102061.03
2023-05-22T18:01:03.096Z,102049.91
2023-05-22T18:03:50.910Z,102048.53
2023-05-22T18:06:37.977Z,102047.66
2023-05-22T18:09:25.105Z,102043.31
2023-05-22T18:12:24.418Z,102039.38
2023-05-22T18:15:18.721Z,102048.84
2023-05-22T18:18:05.911Z,102041.06
2023-05-22T18:20:53.056Z,102037.63
2023-05-22T18:23:40.238Z,102030.59
2023-05-22T18:26:27.489Z,102028.16
2023-05-22T18:29:14.609Z,102025.22
2023-05-22T18:32:01.623Z,102024.91
2023-05-22T18:34:48.711Z,102021.13
2023-05-22T18:37:36.004Z,102018.94
2023-05-22T18:40:23.071Z,102017.75
2023-05-22T18:43:10.065Z,102018.53
2023-05-22T18:48:44.417Z,102018.78
2023-05-22T18:51:31.350Z,102015.22
2023-05-22T18:54:18.611Z,102014.53
2023-05-22T18:57:05.892Z,101989.31
2023-05-22T18:59:52.997Z,102010.28
2023-05-22T19:02:40.143Z,102006.97
2023-05-22T19:05:27.485Z,101999.69
2023-05-22T19:08:14.606Z,101993.91
2023-05-22T19:11:01.606Z,101987.00
2023-05-22T19:13:49.037Z,101987.13
2023-05-22T19:16:36.205Z,101973.28
2023-05-22T19:19:23.757Z,101985.00
2023-05-22T19:22:10.737Z,101982.25
2023-05-22T19:24:57.831Z,101986.25
2023-05-22T19:27:45.448Z,101979.72
2023-05-22T19:30:32.651Z,101979.03
2023-05-22T19:33:19.728Z,101952.59
2023-05-22T19:36:06.965Z,101992.38
2023-05-22T19:38:53.997Z,101987.97
2023-05-22T19:41:41.135Z,101990.13
2023-05-22T19:44:28.145Z,101994.78
2023-05-22T19:47:15.138Z,101982.28
2023-05-22T19:50:02.182Z,101974.53
2023-05-22T19:52:49.353Z,101988.81
2023-05-22T19:55:36.493Z,101964.00
2023-05-22T19:58:23.433Z,101985.06
2023-05-22T20:01:10.483Z,101976.34
2023-05-22T20:03:57.602Z,101983.22
2023-05-22T20:06:44.739Z,101981.25
2023-05-22T20:09:31.745Z,101984.72
2023-05-22T20:12:18.888Z,101983.06
2023-05-22T20:15:06.318Z,101979.56
2023-05-22T20:17:54.351Z,101979.56
2023-05-22T20:20:42.088Z,101981.13
2023-05-22T20:23:29.089Z,101970.09
2023-05-22T20:26:16.165Z,101984.25
2023-05-22T20:29:03.334Z,101962.31
2023-05-22T20:31:50.504Z,101967.78
2023-05-22T20:34:37.488Z,101977.41
2023-05-22T20:37:24.946Z,101975.44
2023-05-22T20:40:12.046Z,101976.03
2023-05-22T20:42:59.634Z,101958.84
2023-05-22T20:45:46.697Z,101959.50
2023-05-22T20:48:33.836Z,101961.72
2023-05-22T20:51:20.859Z,101974.91
2023-05-22T20:54:08.637Z,101972.66
2023-05-22T20:56:55.710Z,101972.34
2023-05-22T20:59:42.732Z,101942.09
2023-05-22T21:02:29.842Z,101964.44
2023-05-22T21:05:16.891Z,101958.75
2023-05-22T21:08:03.914Z,101954.13
2023-05-22T21:10:50.950Z,101939.91
2023-05-22T21:13:39.498Z,101951.44
2023-05-22T21:16:27.090Z,101955.53
2023-05-22T21:19:14.410Z,101953.38
2023-05-22T21:22:01.563Z,101962.00
2023-05-22T21:24:48.614Z,101950.72
2023-05-22T21:27:35.742Z,101943.09
2023-05-22T21:30:22.792Z,101939.22
2023-05-22T21:33:09.837Z,101938.59
2023-05-22T21:35:56.814Z,101934.81
2023-05-22T21:38:43.887Z,101933.25
2023-05-22T21:41:31.035Z,101924.25
2023-05-22T21:44:18.402Z,101936.81
2023-05-22T21:47:05.360Z,101943.50
2023-05-22T21:49:52.407Z,101942.09
2023-05-22T21:52:39.588Z,101931.69
2023-05-22T21:55:27.751Z,101932.13
2023-05-22T21:58:15.727Z,101925.47
2023-05-22T22:01:02.832Z,101913.56
2023-05-22T22:03:49.845Z,101924.47
2023-05-22T22:06:36.948Z,101920.41
2023-05-22T22:09:24.191Z,101880.59
2023-05-22T22:12:11.278Z,101912.13
2023-05-22T22:14:58.319Z,101909.78
2023-05-22T22:17:45.494Z,101904.81
2023-05-22T22:20:43.470Z,101908.69
2023-05-22T22:23:32.595Z,101904.69
2023-05-22T22:26:19.550Z,101897.84
2023-05-22T22:29:06.748Z,101902.66
2023-05-22T22:31:54.354Z,101893.34
2023-05-22T22:34:41.470Z,101890.00
2023-05-22T22:37:28.435Z,101896.50
2023-05-22T22:40:15.555Z,101887.06
2023-05-22T22:43:02.534Z,101890.06
2023-05-22T22:45:49.670Z,101869.81
2023-05-22T22:48:36.850Z,101865.72
2023-05-22T22:51:24.023Z,101845.72
2023-05-22T22:54:10.992Z,101846.75
2023-05-22T22:56:58.158Z,101857.69
2023-05-22T22:59:45.257Z,101851.69
2023-05-22T23:02:32.454Z,101850.19
2023-05-22T23:05:19.527Z,101846.88
2023-05-22T23:08:07.675Z,101844.34
2023-05-22T23:10:54.676Z,101806.91
2023-05-22T23:13:41.851Z,101834.09
2023-05-22T23:16:29.327Z,101836.06
2023-05-22T23:19:16.567Z,101843.44
2023-05-22T23:22:04.708Z,101831.22
2023-05-22T23:24:52.053Z,101788.91
2023-05-22T23:27:39.325Z,101823.66
2023-05-22T23:30:28.266Z,101815.94
2023-05-22T23:33:15.354Z,101815.31
2023-05-22T23:36:02.524Z,101811.09
2023-05-22T23:38:49.485Z,101809.53
2023-05-22T23:41:40.209Z,101806.22
2023-05-22T23:44:27.486Z,101800.22
2023-05-22T23:47:14.767Z,101802.25
2023-05-22T23:50:01.879Z,101795.38
2023-05-22T23:52:49.169Z,101790.41
2023-05-22T23:55:36.235Z,101787.16
2023-05-22T23:58:23.587Z,101794.63
